Hovedside
METAR-TAF:

METAR-TAF

Lufthavner :

Stokmarknes lufthavn. Skagen

Stokmarknes, Norge

breddegrad: 68-35N, lengdegrad: 015-01E, høyde over havet: 0 m

Gjeldene værobservasjon

Denne rapporten ble laget for 26 minutter siden, klokken 12:20 UTC
Vind 12 kt fra Vest
Temperatur -1°C
Luftfuktighet 69%
Trykk 993 hPa
Sikt 10 km eller mer
Få skyer i en høyde av 1200 ft
Få skyer i en høyde av 2500 ft, Bygeskyer.
Spredte skyer i en høyde av 3500 ft
regnbyger i nærheten

METAR: ENSK 241220Z 28012KT 9999 VCSH FEW012 FEW025CB SCT035 M01/M06 Q0993

Tid: 13:46 (12:46 UTC)


TAF: fraværende

Værobservasjoner og værvarsel for over 4000 flyplasser (METAR- og TAF-rapporter).

Tilgjengelige stasjoner er representert av de røde og gule prikkene på kartet.

Hold musepekeren over prikken for å se navnet på stasjonen.

Klikk så for å se værobservasjoner og -varsler.

For å forandre kartet kan du klikke på den grønne knappen med svart kryss for å zoome inn, på den grønne knappen med strek for å zoome ut, eller på de grønne pilene for å se tilstøtende kart.


METAR-TAF: